Tuesday, January 15, 2019, 11:26 PM GMT
Back to Local

CWVU, Brier Island, N. S.

Location: , , Canada Lat: 44.286
Local Time: 11:26 PM GMT (23:26 GMT) Lon: -66.347
Time Zone: GMT Elev: 52 ft

Show me the last for .
Show Coded

Time T Td Feel RH Dir Speed Gust Alt SLP Vis Weather Sky Remarks
2019-01-15 23:00 29 23 15 77 310° 16 22 - 30.05 0 Peak wind: 24 mph (21 kts) from 310° at 08 min
2019-01-15 22:00 29 24 17 79 320° 17 - - 30.04 0 Peak wind: 24 mph (21 kts) from 310° at 15 min
2019-01-15 21:00 28 23 16 81 320° 17 - - 30.02 0 Peak wind: 24 mph (21 kts) from 320° at 00 min
2019-01-15 20:00 28 26 14 89 320° 18 24 - 30.00 0 Peak wind: 24 mph (21 kts) from 320° at 59 min
2019-01-15 19:00 28 24 16 85 320° 17 - - 29.99 0 Peak wind: 25 mph (22 kts) from 320° at 21 min
2019-01-15 18:00 28 23 15 82 320° 20 - - 29.97 0 Peak wind: 25 mph (22 kts) from 320° at 36 min
2019-01-15 17:00 28 20 15 73 320° 18 - - 29.97 0 Peak wind: 24 mph (21 kts) from 320° at 58 min
2019-01-15 16:00 28 21 14 74 340° 20 - - 29.99 0 Peak wind: 24 mph (21 kts) from 330° at 05 min
2019-01-15 15:00 27 20 14 73 340° 20 - - 30.00 0 Peak wind: 24 mph (21 kts) from 320° at 53 min
2019-01-15 14:00 26 21 14 78 340° 17 - - 29.98 0 Peak wind: 24 mph (21 kts) from 340° at 36 min
2019-01-15 13:00 26 20 12 78 340° 18 - - 29.96 0 Peak wind: 24 mph (21 kts) from 330° at 05 min
2019-01-15 12:00 26 20 12 79 340° 18 - - 29.95 0 Peak wind: 23 mph (20 kts) from 340° at 58 min
2019-01-15 11:00 25 20 12 79 340° 16 - - 29.95 0 Peak wind: 20 mph (18 kts) from 340° at 10 min
2019-01-15 10:00 25 20 10 80 340° 18 24 - 29.95 0 Peak wind: 24 mph (21 kts) from 330° at 52 min
2019-01-15 09:00 26 20 13 79 340° 17 - - 29.94 0 Peak wind: 24 mph (21 kts) from 340° at 48 min
2019-01-15 08:00 28 19 15 69 340° 17 - - 29.95 0 Peak wind: 23 mph (20 kts) from 330° at 04 min
2019-01-15 07:00 25 21 11 85 340° 20 - - 29.96 0 Peak wind: 24 mph (21 kts) from 340° at 29 min
2019-01-15 06:00 25 20 12 81 340° 17 - - 29.96 0 Peak wind: 23 mph (20 kts) from 340° at 31 min
2019-01-15 05:00 25 21 11 86 340° 17 - - 29.97 0 Peak wind: 24 mph (21 kts) from 340° at 21 min
2019-01-15 04:00 26 21 13 79 340° 18 - - 29.99 0 Peak wind: 23 mph (20 kts) from 340° at 52 min
2019-01-15 03:00 26 19 15 73 360° 14 - - 30.03 0 None
2019-01-15 02:00 26 18 14 72 360° 14 - - 30.06 0 Peak wind: 19 mph (17 kts) from 350° at 32 min
2019-01-15 01:00 26 19 12 75 350° 14 20 - 30.07 0 Peak wind: 19 mph (17 kts) from 350° at 52 min
2019-01-15 00:00 25 19 13 77 350° 14 - - 30.10 0 None

Support USWX by starting your Amazon purchase here.